createdAt,value
2023-04-08T00:01:18.218Z,11.20
2023-04-08T00:03:45.519Z,11.07
2023-04-08T00:06:12.482Z,12.23
2023-04-08T00:08:39.204Z,11.70
2023-04-08T00:11:06.398Z,11.38
2023-04-08T00:13:33.323Z,12.60
2023-04-08T00:16:00.236Z,11.07
2023-04-08T00:18:27.328Z,11.75
2023-04-08T00:20:54.274Z,13.27
2023-04-08T00:23:21.469Z,11.70
2023-04-08T00:25:48.367Z,13.60
2023-04-08T00:28:15.403Z,11.85
2023-04-08T00:30:42.163Z,12.18
2023-04-08T00:33:09.037Z,12.70
2023-04-08T00:35:35.998Z,15.65
2023-04-08T00:38:03.444Z,12.75
2023-04-08T00:40:30.294Z,11.32
2023-04-08T00:42:58.509Z,12.60
2023-04-08T00:45:25.911Z,12.27
2023-04-08T00:47:53.545Z,11.82
2023-04-08T00:50:21.271Z,16.08
2023-04-08T00:52:48.221Z,13.32
2023-04-08T00:55:15.064Z,12.68
2023-04-08T00:57:42.291Z,12.07
2023-04-08T01:00:12.187Z,11.40
2023-04-08T01:02:47.293Z,13.63
2023-04-08T01:05:38.900Z,13.20
2023-04-08T01:08:08.325Z,11.98
2023-04-08T01:10:37.859Z,11.38
2023-04-08T01:13:10.014Z,11.18
2023-04-08T01:15:42.701Z,12.35
2023-04-08T01:18:15.839Z,13.40
2023-04-08T01:20:44.247Z,12.45
2023-04-08T01:23:23.074Z,13.38
2023-04-08T01:25:56.867Z,12.85
2023-04-08T01:28:27.089Z,13.65
2023-04-08T01:30:56.402Z,12.45
2023-04-08T01:33:24.465Z,12.48
2023-04-08T01:35:56.216Z,13.15
2023-04-08T01:38:26.381Z,14.18
2023-04-08T01:40:54.647Z,11.93
2023-04-08T01:43:22.969Z,12.23
2023-04-08T01:45:54.370Z,11.15
2023-04-08T01:48:21.446Z,13.15
2023-04-08T01:50:49.121Z,13.52
2023-04-08T01:53:16.222Z,12.48
2023-04-08T01:55:46.038Z,12.55
2023-04-08T01:58:19.858Z,13.32
2023-04-08T02:00:47.729Z,12.02
2023-04-08T02:03:17.632Z,14.60
2023-04-08T02:05:46.357Z,12.00
2023-04-08T02:08:13.413Z,13.68
2023-04-08T02:10:40.745Z,13.10
2023-04-08T02:13:08.259Z,13.85
2023-04-08T02:15:38.087Z,14.32
2023-04-08T02:18:15.524Z,16.63
2023-04-08T02:20:47.723Z,14.32
2023-04-08T02:23:19.434Z,14.65
2023-04-08T02:25:48.168Z,14.68
2023-04-08T02:28:17.469Z,13.57
2023-04-08T02:30:50.926Z,14.77
2023-04-08T02:33:20.926Z,15.90
2023-04-08T02:35:50.476Z,13.93
2023-04-08T02:38:17.395Z,13.55
2023-04-08T02:40:44.182Z,15.15
2023-04-08T02:43:10.979Z,14.27
2023-04-08T02:45:44.725Z,13.90
2023-04-08T02:48:11.809Z,16.00
2023-04-08T02:50:39.820Z,14.18
2023-04-08T02:53:07.271Z,15.93
2023-04-08T02:55:34.464Z,13.05
2023-04-08T02:58:01.224Z,13.63
2023-04-08T03:00:28.121Z,19.27
2023-04-08T03:02:55.262Z,14.43
2023-04-08T03:05:22.258Z,15.73
2023-04-08T03:07:49.168Z,15.43
2023-04-08T03:10:16.206Z,13.60
2023-04-08T03:12:43.012Z,14.75
2023-04-08T03:15:10.084Z,14.80
2023-04-08T03:17:36.873Z,13.73
2023-04-08T03:20:05.141Z,16.13
2023-04-08T03:22:32.029Z,14.73
2023-04-08T03:24:58.861Z,14.85
2023-04-08T03:27:26.124Z,12.75
2023-04-08T03:29:53.182Z,13.80
2023-04-08T03:32:20.319Z,13.48
2023-04-08T03:34:47.096Z,13.50
2023-04-08T03:37:13.857Z,15.60
2023-04-08T03:39:40.701Z,16.52
2023-04-08T03:42:07.600Z,14.85
2023-04-08T03:44:34.427Z,14.20
2023-04-08T03:47:01.159Z,15.07
2023-04-08T03:49:27.911Z,15.70
2023-04-08T03:51:54.657Z,13.73
2023-04-08T03:54:21.445Z,14.68
2023-04-08T03:56:50.127Z,13.52
2023-04-08T03:59:16.954Z,14.23
2023-04-08T04:01:43.824Z,13.70
2023-04-08T04:04:13.422Z,16.08
2023-04-08T04:06:40.413Z,17.27
2023-04-08T04:09:07.172Z,15.43
2023-04-08T04:11:36.749Z,15.15
2023-04-08T04:14:03.903Z,14.85
2023-04-08T04:16:32.836Z,15.45
2023-04-08T04:19:00.144Z,15.82
2023-04-08T04:21:27.321Z,15.88
2023-04-08T04:23:54.246Z,17.15
2023-04-08T04:26:21.228Z,16.13
2023-04-08T04:28:48.184Z,18.50
2023-04-08T04:31:22.706Z,17.88
2023-04-08T04:33:49.776Z,16.67
2023-04-08T04:36:16.557Z,17.90
2023-04-08T04:38:44.251Z,19.98
2023-04-08T04:41:11.061Z,19.15
2023-04-08T04:43:37.923Z,18.08
2023-04-08T04:46:07.189Z,16.70
2023-04-08T04:48:34.482Z,16.65
2023-04-08T04:51:03.328Z,18.45
2023-04-08T04:53:31.702Z,16.08
2023-04-08T04:56:01.158Z,16.52
2023-04-08T04:58:28.419Z,16.33
2023-04-08T05:00:56.084Z,16.80
2023-04-08T05:03:23.342Z,18.20
2023-04-08T05:05:54.561Z,17.98
2023-04-08T05:08:21.549Z,18.42
2023-04-08T05:10:50.190Z,17.27
2023-04-08T05:13:18.008Z,18.40
2023-04-08T05:15:47.826Z,14.43
2023-04-08T05:18:14.963Z,18.80
2023-04-08T05:20:41.867Z,15.73
2023-04-08T05:23:08.808Z,16.30
2023-04-08T05:25:36.165Z,15.25
2023-04-08T05:28:03.671Z,17.50
2023-04-08T05:30:31.022Z,16.77
2023-04-08T05:33:00.141Z,15.57
2023-04-08T05:35:28.272Z,15.70
2023-04-08T05:37:55.386Z,16.65
2023-04-08T05:40:22.158Z,15.70
2023-04-08T05:42:49.251Z,14.93
2023-04-08T05:45:16.314Z,16.38
2023-04-08T05:47:43.161Z,15.68
2023-04-08T05:50:11.524Z,16.90
2023-04-08T05:52:42.623Z,16.42
2023-04-08T05:55:09.492Z,16.25
2023-04-08T05:57:36.449Z,14.38
2023-04-08T06:00:05.329Z,14.85
2023-04-08T06:02:33.281Z,15.00
2023-04-08T06:05:00.319Z,13.35
2023-04-08T06:07:27.240Z,14.20
2023-04-08T06:09:53.946Z,13.63
2023-04-08T06:12:21.011Z,12.35
2023-04-08T06:14:48.480Z,12.77
2023-04-08T06:17:15.337Z,11.63
2023-04-08T06:19:42.146Z,10.73
2023-04-08T06:22:08.913Z,10.23
2023-04-08T06:24:35.644Z,11.82
2023-04-08T06:27:03.012Z,9.05
2023-04-08T06:29:30.295Z,9.15
2023-04-08T06:31:57.320Z,9.73
2023-04-08T06:34:24.228Z,8.85
2023-04-08T06:36:51.566Z,8.68
2023-04-08T06:39:19.458Z,9.02
2023-04-08T06:41:46.302Z,8.75
2023-04-08T06:44:32.402Z,9.05
2023-04-08T06:46:59.180Z,9.35
2023-04-08T06:49:27.106Z,8.60
2023-04-08T06:51:54.505Z,8.23
2023-04-08T06:54:21.311Z,8.00
2023-04-08T06:56:48.050Z,8.95
2023-04-08T06:59:14.771Z,7.15
2023-04-08T07:01:41.981Z,7.20
2023-04-08T07:04:08.913Z,7.78
2023-04-08T07:06:35.781Z,7.47
2023-04-08T07:09:02.535Z,7.45
2023-04-08T07:11:29.420Z,9.68
2023-04-08T07:13:56.196Z,8.45
2023-04-08T07:16:23.023Z,8.27
2023-04-08T07:18:49.922Z,7.05
2023-04-08T07:21:18.106Z,8.82
2023-04-08T07:23:44.889Z,8.43
2023-04-08T07:26:11.672Z,9.45
2023-04-08T07:28:38.802Z,8.45
2023-04-08T07:31:17.396Z,8.85
2023-04-08T07:33:45.737Z,7.70
2023-04-08T07:36:13.339Z,7.78
2023-04-08T07:38:40.829Z,9.05
2023-04-08T07:41:07.673Z,8.02
2023-04-08T07:43:34.628Z,8.10
2023-04-08T07:46:04.981Z,7.20
2023-04-08T07:48:32.732Z,8.10
2023-04-08T07:51:10.005Z,6.88
2023-04-08T07:53:38.753Z,7.38
2023-04-08T07:56:12.301Z,8.65
2023-04-08T07:58:40.466Z,29.73
2023-04-08T08:01:23.626Z,21.10
2023-04-08T08:03:52.578Z,9.35
2023-04-08T08:06:20.795Z,19.95
2023-04-08T08:08:47.756Z,9.27
2023-04-08T08:11:14.589Z,8.75
2023-04-08T08:13:41.350Z,10.63
2023-04-08T08:16:11.310Z,10.20
2023-04-08T08:18:40.042Z,8.90
2023-04-08T08:21:08.036Z,9.70
2023-04-08T08:23:34.935Z,8.90
2023-04-08T08:26:07.644Z,9.10
2023-04-08T08:28:34.413Z,8.48
2023-04-08T08:31:02.290Z,9.15
2023-04-08T08:33:29.409Z,7.18
2023-04-08T08:35:57.996Z,8.10
2023-04-08T08:38:25.887Z,6.78
2023-04-08T08:40:57.179Z,7.22
2023-04-08T08:43:25.807Z,8.32
2023-04-08T08:45:53.063Z,7.50
2023-04-08T08:48:19.897Z,8.00
2023-04-08T08:50:46.849Z,8.32
2023-04-08T08:53:13.727Z,6.35
2023-04-08T08:56:05.698Z,4.20
2023-04-08T08:58:28.432Z,4.55
2023-04-08T09:00:55.428Z,3.38
2023-04-08T09:03:28.107Z,6.32
2023-04-08T09:05:56.294Z,4.35
2023-04-08T09:08:28.586Z,5.82
2023-04-08T09:10:56.259Z,5.30
2023-04-08T09:13:26.514Z,5.88
2023-04-08T09:16:06.444Z,16.45
2023-04-08T09:18:34.041Z,5.80
2023-04-08T09:21:02.191Z,6.70
2023-04-08T09:23:45.836Z,5.60
2023-04-08T09:26:14.662Z,6.05
2023-04-08T09:28:43.258Z,5.22
2023-04-08T09:31:25.673Z,4.40
2023-04-08T09:34:00.538Z,4.82
2023-04-08T09:36:27.561Z,3.95
2023-04-08T09:38:55.484Z,4.45
2023-04-08T09:41:23.743Z,6.10
2023-04-08T09:43:54.227Z,5.65
2023-04-08T09:46:32.973Z,5.45
2023-04-08T09:49:07.399Z,5.00
2023-04-08T09:51:50.083Z,4.55
2023-04-08T09:54:21.665Z,5.75
2023-04-08T09:56:57.214Z,6.40
2023-04-08T09:59:28.052Z,5.63
2023-04-08T10:01:56.404Z,4.78
2023-04-08T10:04:26.654Z,4.07
2023-04-08T10:07:03.449Z,4.55
2023-04-08T10:09:30.939Z,4.28
2023-04-08T10:11:57.865Z,4.72
2023-04-08T10:14:28.480Z,4.90
2023-04-08T10:17:26.212Z,4.10
2023-04-08T10:19:53.493Z,5.57
2023-04-08T10:22:29.490Z,3.55
2023-04-08T10:25:18.108Z,5.18
2023-04-08T10:27:45.474Z,4.70
2023-04-08T10:30:27.670Z,4.20
2023-04-08T10:33:01.530Z,4.45
2023-04-08T10:35:34.623Z,6.15
2023-04-08T10:38:02.042Z,5.60
2023-04-08T10:40:28.873Z,6.20
2023-04-08T10:42:56.542Z,5.05
2023-04-08T10:45:24.178Z,5.82
2023-04-08T10:47:51.175Z,5.88
2023-04-08T10:50:19.509Z,5.68
2023-04-08T10:52:50.934Z,6.03
2023-04-08T10:55:26.588Z,7.25
2023-04-08T10:57:54.917Z,6.65
2023-04-08T11:00:37.357Z,6.10
2023-04-08T11:03:06.270Z,6.47
2023-04-08T11:05:34.026Z,9.60
2023-04-08T11:08:01.343Z,7.15
2023-04-08T11:10:31.115Z,7.22
2023-04-08T11:12:58.438Z,6.72
2023-04-08T11:15:25.485Z,8.77
2023-04-08T11:17:54.238Z,7.75
2023-04-08T11:20:21.945Z,9.48
2023-04-08T11:22:48.855Z,7.65
2023-04-08T11:25:15.855Z,7.13
2023-04-08T11:27:42.948Z,7.95
2023-04-08T11:30:12.052Z,9.27
2023-04-08T11:32:39.942Z,6.10
2023-04-08T11:35:07.361Z,6.65
2023-04-08T11:37:41.897Z,7.05
2023-04-08T11:40:13.424Z,6.53
2023-04-08T11:42:41.000Z,8.45
2023-04-08T11:45:12.187Z,7.57
2023-04-08T11:47:39.815Z,10.70
2023-04-08T11:50:07.479Z,8.65
2023-04-08T11:52:44.654Z,7.13
2023-04-08T11:55:12.921Z,8.07
2023-04-08T11:57:39.954Z,8.70
2023-04-08T12:00:07.930Z,8.68
2023-04-08T12:02:37.671Z,8.52
2023-04-08T12:05:04.671Z,9.88
2023-04-08T12:07:31.475Z,10.45
2023-04-08T12:09:58.458Z,10.20
2023-04-08T12:12:25.730Z,11.45
2023-04-08T12:14:53.195Z,11.95
2023-04-08T12:17:19.935Z,11.27
2023-04-08T12:19:46.828Z,12.38
2023-04-08T12:22:13.717Z,13.38
2023-04-08T12:24:41.572Z,12.30
2023-04-08T12:27:08.506Z,12.75
2023-04-08T12:29:35.378Z,16.67
2023-04-08T12:32:03.811Z,12.15
2023-04-08T12:34:30.570Z,10.30
2023-04-08T12:36:57.312Z,10.70
2023-04-08T12:39:24.096Z,12.90
2023-04-08T12:41:50.981Z,11.18
2023-04-08T12:44:17.815Z,12.30
2023-04-08T12:46:45.085Z,12.15
2023-04-08T12:49:12.470Z,13.10
2023-04-08T12:51:40.735Z,14.50
2023-04-08T12:54:08.058Z,17.83
2023-04-08T12:56:35.068Z,12.48
2023-04-08T12:59:01.851Z,11.68
2023-04-08T13:01:28.842Z,12.15
2023-04-08T13:03:55.967Z,11.40
2023-04-08T13:06:22.979Z,11.95
2023-04-08T13:08:50.105Z,12.98
2023-04-08T13:11:17.071Z,11.20
2023-04-08T13:13:46.342Z,12.65
2023-04-08T13:16:16.900Z,11.68
2023-04-08T13:18:43.668Z,12.05
2023-04-08T13:21:10.648Z,11.20
2023-04-08T13:23:37.615Z,11.25
2023-04-08T13:26:04.364Z,11.20
2023-04-08T13:28:31.200Z,10.90
2023-04-08T13:30:58.049Z,12.40
2023-04-08T13:33:24.933Z,13.50
2023-04-08T13:35:51.711Z,11.32
2023-04-08T13:38:18.765Z,12.45
2023-04-08T13:40:46.642Z,16.25
2023-04-08T13:43:14.605Z,13.13
2023-04-08T13:45:41.839Z,12.07
2023-04-08T13:48:08.959Z,12.07
2023-04-08T13:50:36.052Z,12.80
2023-04-08T13:53:02.820Z,12.00
2023-04-08T13:55:29.572Z,12.20
2023-04-08T13:57:56.545Z,11.80
2023-04-08T14:00:25.383Z,11.80
2023-04-08T14:02:52.341Z,11.60
2023-04-08T14:05:19.605Z,13.45
2023-04-08T14:07:46.350Z,13.05
2023-04-08T14:10:14.532Z,12.23
2023-04-08T14:12:42.244Z,12.40
2023-04-08T14:15:09.532Z,12.50
2023-04-08T14:17:36.393Z,14.07
2023-04-08T14:20:05.432Z,15.32
2023-04-08T14:22:32.276Z,12.55
2023-04-08T14:24:59.263Z,12.75
2023-04-08T14:27:26.266Z,12.85
2023-04-08T14:29:53.048Z,14.00
2023-04-08T14:32:20.029Z,15.48
2023-04-08T14:34:46.813Z,13.07
2023-04-08T14:37:13.542Z,14.20
2023-04-08T14:39:40.517Z,13.20
2023-04-08T14:42:07.268Z,15.38
2023-04-08T14:44:34.287Z,16.27
2023-04-08T14:47:01.093Z,14.30
2023-04-08T14:49:27.814Z,15.45
2023-04-08T14:51:54.650Z,14.30
2023-04-08T14:54:21.763Z,15.85
2023-04-08T14:56:48.607Z,14.98
2023-04-08T14:59:15.572Z,14.50
2023-04-08T15:01:44.639Z,14.60
2023-04-08T15:04:11.677Z,15.68
2023-04-08T15:06:40.336Z,16.50
2023-04-08T15:09:07.257Z,15.75
2023-04-08T15:11:34.192Z,17.05
2023-04-08T15:14:01.292Z,15.18
2023-04-08T15:16:28.412Z,12.98
2023-04-08T15:18:55.262Z,16.38
2023-04-08T15:21:22.864Z,14.85
2023-04-08T15:23:49.571Z,13.25
2023-04-08T15:26:19.151Z,12.50
2023-04-08T15:28:46.082Z,12.68
2023-04-08T15:31:13.624Z,14.50
2023-04-08T15:33:42.917Z,15.00
2023-04-08T15:36:09.824Z,13.80
2023-04-08T15:38:37.085Z,14.40
2023-04-08T15:41:04.003Z,14.75
2023-04-08T15:43:31.057Z,13.68
2023-04-08T15:45:58.054Z,13.82
2023-04-08T15:48:24.900Z,13.93
2023-04-08T15:50:52.222Z,15.80
2023-04-08T15:53:18.995Z,14.95
2023-04-08T15:55:45.772Z,16.35
2023-04-08T15:58:12.534Z,18.08
2023-04-08T16:00:39.989Z,16.98
2023-04-08T16:03:08.762Z,15.55
2023-04-08T16:05:36.115Z,14.70
2023-04-08T16:08:04.537Z,16.90
2023-04-08T16:10:31.449Z,28.77
2023-04-08T16:12:58.984Z,45.25
2023-04-08T16:15:25.903Z,24.63
2023-04-08T16:17:53.077Z,13.80
2023-04-08T16:20:21.029Z,16.38
2023-04-08T16:22:47.924Z,13.32
2023-04-08T16:25:15.044Z,12.93
2023-04-08T16:27:41.825Z,12.30
2023-04-08T16:30:09.191Z,12.57
2023-04-08T16:32:36.828Z,12.95
2023-04-08T16:35:03.829Z,12.43
2023-04-08T16:37:30.586Z,15.05
2023-04-08T16:39:57.405Z,12.18
2023-04-08T16:42:24.190Z,12.73
2023-04-08T16:44:56.210Z,12.48
2023-04-08T16:47:23.303Z,12.07
2023-04-08T16:49:52.024Z,11.40
2023-04-08T16:52:19.205Z,12.05
2023-04-08T16:54:46.223Z,12.98
2023-04-08T16:57:13.000Z,11.18
2023-04-08T16:59:39.778Z,11.70
2023-04-08T17:02:07.922Z,13.25
2023-04-08T17:04:35.243Z,13.65
2023-04-08T17:07:02.265Z,16.77
2023-04-08T17:09:28.995Z,13.93
2023-04-08T17:11:56.062Z,13.88
2023-04-08T17:14:22.938Z,15.85
2023-04-08T17:16:49.950Z,19.23
2023-04-08T17:19:17.692Z,15.20
2023-04-08T17:21:44.592Z,17.40
2023-04-08T17:24:11.328Z,14.52
2023-04-08T17:26:40.261Z,15.63
2023-04-08T17:29:06.977Z,12.68
2023-04-08T17:31:33.995Z,13.40
2023-04-08T17:34:00.913Z,12.93
2023-04-08T17:36:30.312Z,12.38
2023-04-08T17:38:57.590Z,14.57
2023-04-08T17:41:38.309Z,15.07
2023-04-08T17:44:06.942Z,14.82
2023-04-08T17:46:33.983Z,17.45
2023-04-08T17:49:01.397Z,17.15
2023-04-08T17:51:29.137Z,15.70
2023-04-08T17:53:56.143Z,15.10
2023-04-08T17:56:23.562Z,15.77
2023-04-08T17:58:50.451Z,18.33
2023-04-08T18:01:17.353Z,17.52
2023-04-08T18:03:44.755Z,16.92
2023-04-08T18:06:11.576Z,17.73
2023-04-08T18:08:38.324Z,21.23
2023-04-08T18:11:05.927Z,31.40
2023-04-08T18:13:33.110Z,27.52
2023-04-08T18:15:59.869Z,16.70
2023-04-08T18:18:27.106Z,19.60
2023-04-08T18:20:53.845Z,16.98
2023-04-08T18:23:20.591Z,19.38
2023-04-08T18:25:47.933Z,18.33
2023-04-08T18:28:14.726Z,20.00
2023-04-08T18:30:43.204Z,18.70
2023-04-08T18:33:10.387Z,20.73
2023-04-08T18:35:37.229Z,20.60
2023-04-08T18:38:04.020Z,24.65
2023-04-08T18:40:31.269Z,22.42
2023-04-08T18:43:02.082Z,19.23
2023-04-08T18:45:29.521Z,19.30
2023-04-08T18:47:56.393Z,18.25
2023-04-08T18:50:23.684Z,19.88
2023-04-08T18:52:50.781Z,20.42
2023-04-08T18:55:17.563Z,18.15
2023-04-08T18:57:44.718Z,19.05
2023-04-08T19:00:11.686Z,17.63
2023-04-08T19:02:38.759Z,21.25
2023-04-08T19:05:06.379Z,18.80
2023-04-08T19:07:34.252Z,21.02
2023-04-08T19:10:01.178Z,29.05
2023-04-08T19:12:28.020Z,48.63
2023-04-08T19:14:54.884Z,53.35
2023-04-08T19:17:21.614Z,24.27
2023-04-08T19:19:48.306Z,24.15
2023-04-08T19:22:15.173Z,19.48
2023-04-08T19:24:42.019Z,18.63
2023-04-08T19:27:08.901Z,20.10
2023-04-08T19:29:35.865Z,20.08
2023-04-08T19:32:04.211Z,19.20
2023-04-08T19:34:31.062Z,23.17
2023-04-08T19:36:57.901Z,21.52
2023-04-08T19:39:26.705Z,21.00
2023-04-08T19:41:54.356Z,17.85
2023-04-08T19:44:21.342Z,17.80
2023-04-08T19:46:48.344Z,19.48
2023-04-08T19:49:15.548Z,18.88
2023-04-08T19:51:42.311Z,18.15
2023-04-08T19:54:09.358Z,16.58
2023-04-08T19:56:37.076Z,15.55
2023-04-08T19:59:03.840Z,18.08
2023-04-08T20:01:31.363Z,16.67
2023-04-08T20:03:58.254Z,17.58
2023-04-08T20:06:25.085Z,15.75
2023-04-08T20:08:53.035Z,17.77
2023-04-08T20:11:21.047Z,15.77
2023-04-08T20:13:49.141Z,18.75
2023-04-08T20:16:16.592Z,16.58
2023-04-08T20:18:43.550Z,17.90
2023-04-08T20:21:13.751Z,17.58
2023-04-08T20:23:44.301Z,15.68
2023-04-08T20:26:12.647Z,15.02
2023-04-08T20:28:40.707Z,16.23
2023-04-08T20:31:07.756Z,18.17
2023-04-08T20:33:34.899Z,17.45
2023-04-08T20:36:01.769Z,14.40
2023-04-08T20:38:28.958Z,16.23
2023-04-08T20:40:56.057Z,15.60
2023-04-08T20:43:23.568Z,15.05
2023-04-08T20:45:50.363Z,14.98
2023-04-08T20:48:17.219Z,15.70
2023-04-08T20:50:44.938Z,18.05
2023-04-08T20:53:12.855Z,18.35
2023-04-08T20:55:39.763Z,17.10
2023-04-08T20:58:07.740Z,19.27
2023-04-08T21:00:35.277Z,15.25
2023-04-08T21:03:02.248Z,16.23
2023-04-08T21:05:29.113Z,15.45
2023-04-08T21:07:56.066Z,15.73
2023-04-08T21:10:22.977Z,16.80
2023-04-08T21:12:49.962Z,17.60
2023-04-08T21:15:16.719Z,17.85
2023-04-08T21:17:43.830Z,25.65
2023-04-08T21:20:13.704Z,41.72
2023-04-08T21:22:40.503Z,16.42
2023-04-08T21:25:07.815Z,12.25
2023-04-08T21:27:35.003Z,16.20
2023-04-08T21:30:01.996Z,14.48
2023-04-08T21:32:30.369Z,17.48
2023-04-08T21:34:57.756Z,11.95
2023-04-08T21:37:24.629Z,12.85
2023-04-08T21:39:51.523Z,14.20
2023-04-08T21:42:22.835Z,12.48
2023-04-08T21:44:49.887Z,13.00
2023-04-08T21:47:17.221Z,11.43
2023-04-08T21:49:44.366Z,11.60
2023-04-08T21:52:11.173Z,12.57
2023-04-08T21:54:38.236Z,10.65
2023-04-08T21:57:04.981Z,11.27
2023-04-08T21:59:31.772Z,13.55
2023-04-08T22:01:59.599Z,15.52
2023-04-08T22:04:27.785Z,11.07
2023-04-08T22:06:55.073Z,17.42
2023-04-08T22:09:22.105Z,22.17
2023-04-08T22:11:48.831Z,15.65
2023-04-08T22:14:18.831Z,17.08
2023-04-08T22:16:45.790Z,13.35
2023-04-08T22:19:12.560Z,15.43
2023-04-08T22:21:39.345Z,12.02
2023-04-08T22:24:06.232Z,10.40
2023-04-08T22:26:33.097Z,13.30
2023-04-08T22:28:59.814Z,10.35
2023-04-08T22:31:27.045Z,11.88
2023-04-08T22:33:53.949Z,12.75
2023-04-08T22:36:20.739Z,11.52
2023-04-08T22:38:47.488Z,12.15
2023-04-08T22:41:21.629Z,10.57
2023-04-08T22:43:48.793Z,12.77
2023-04-08T22:46:18.016Z,11.18
2023-04-08T22:48:45.355Z,12.60
2023-04-08T22:51:12.678Z,12.95
2023-04-08T22:53:39.715Z,12.02
2023-04-08T22:56:06.616Z,11.70
2023-04-08T22:58:33.408Z,11.98
2023-04-08T23:01:00.553Z,12.15
2023-04-08T23:03:27.666Z,11.32
2023-04-08T23:05:54.422Z,10.70
2023-04-08T23:08:21.165Z,12.18
2023-04-08T23:10:48.119Z,12.15
2023-04-08T23:13:14.896Z,12.68
2023-04-08T23:15:41.981Z,14.05
2023-04-08T23:18:08.768Z,13.45
2023-04-08T23:20:35.908Z,12.77
2023-04-08T23:23:03.396Z,13.57
2023-04-08T23:25:30.278Z,12.07
2023-04-08T23:27:57.005Z,12.23
2023-04-08T23:30:23.808Z,12.38
2023-04-08T23:32:50.784Z,13.18
2023-04-08T23:35:17.865Z,13.75
2023-04-08T23:37:44.618Z,15.18
2023-04-08T23:40:11.675Z,13.02
2023-04-08T23:42:38.916Z,15.10
2023-04-08T23:45:06.281Z,16.02
2023-04-08T23:47:33.031Z,12.93
2023-04-08T23:49:59.915Z,13.20
2023-04-08T23:52:26.682Z,13.43
2023-04-08T23:54:53.571Z,14.25
2023-04-08T23:57:20.408Z,15.18
2023-04-08T23:59:47.746Z,14.27
